地図

経路データ

SID SEASON NUMBER BASIN SUBBASIN NAME ISO_TIME NATURE LAT LON WMO_WIND WMO_PRES WMO_AGENCY TRACK_TYPE DIST2LAND LANDFALL IFLAG USA_AGENCY USA_ATCF_ID USA_LAT USA_LON USA_RECORD USA_STATUS USA_WIND USA_PRES USA_SSHS USA_R34_NE USA_R34_SE USA_R34_SW USA_R34_NW USA_R50_NE USA_R50_SE USA_R50_SW USA_R50_NW USA_R64_NE USA_R64_SE USA_R64_SW USA_R64_NW USA_POCI USA_ROCI USA_RMW USA_EYE TOKYO_LAT TOKYO_LON TOKYO_GRADE TOKYO_WIND TOKYO_PRES TOKYO_R50_DIR TOKYO_R50_LONG TOKYO_R50_SHORT TOKYO_R30_DIR TOKYO_R30_LONG TOKYO_R30_SHORT TOKYO_LAND CMA_LAT CMA_LON CMA_CAT CMA_WIND CMA_PRES HKO_LAT HKO_LON HKO_CAT HKO_WIND HKO_PRES NEWDELHI_LAT NEWDELHI_LON NEWDELHI_GRADE NEWDELHI_WIND NEWDELHI_PRES NEWDELHI_CI NEWDELHI_DP NEWDELHI_POCI REUNION_LAT REUNION_LON REUNION_TYPE REUNION_WIND REUNION_PRES REUNION_TNUM REUNION_CI REUNION_RMW REUNION_R34_NE REUNION_R34_SE REUNION_R34_SW REUNION_R34_NW REUNION_R50_NE REUNION_R50_SE REUNION_R50_SW REUNION_R50_NW REUNION_R64_NE REUNION_R64_SE REUNION_R64_SW REUNION_R64_NW BOM_LAT BOM_LON BOM_TYPE BOM_WIND BOM_PRES BOM_TNUM BOM_CI BOM_RMW BOM_R34_NE BOM_R34_SE BOM_R34_SW BOM_R34_NW BOM_R50_NE BOM_R50_SE BOM_R50_SW BOM_R50_NW BOM_R64_NE BOM_R64_SE BOM_R64_SW BOM_R64_NW BOM_ROCI BOM_POCI BOM_EYE BOM_POS_METHOD BOM_PRES_METHOD NADI_LAT NADI_LON NADI_CAT NADI_WIND NADI_PRES WELLINGTON_LAT WELLINGTON_LON WELLINGTON_WIND WELLINGTON_PRES DS824_LAT DS824_LON DS824_STAGE DS824_WIND DS824_PRES TD9636_LAT TD9636_LON TD9636_STAGE TD9636_WIND TD9636_PRES TD9635_LAT TD9635_LON TD9635_WIND TD9635_PRES TD9635_ROCI NEUMANN_LAT NEUMANN_LON NEUMANN_CLASS NEUMANN_WIND NEUMANN_PRES MLC_LAT MLC_LON MLC_CLASS MLC_WIND MLC_PRES USA_GUST BOM_GUST BOM_GUST_PER REUNION_GUST REUNION_GUST_PER USA_SEAHGT USA_SEARAD_NE USA_SEARAD_SE USA_SEARAD_SW USA_SEARAD_NW STORM_SPEED STORM_DIR
1919363N08086 1919 52 NI BB NOT_NAMED 1919-12-29 00:00:00 TS 8.00000 85.5000 main 410 388 _________O____ -1 8.00000 85.5000 TC 34 4 281
1919363N08086 1919 52 NI BB NOT_NAMED 1919-12-29 03:00:00 TS 8.04003 85.3000 main 388 357 _________PO___ -1 8.06004 85.2000 TC 36 8.00000 85.5000 2 5 279
1919363N08086 1919 52 NI BB NOT_NAMED 1919-12-29 06:00:00 TS 8.07320 85.0175 main 357 324 _________OP___ -1 8.10000 84.9000 TC 39 8.03300 85.1938 2 6 275
1919363N08086 1919 52 NI BB NOT_NAMED 1919-12-29 09:00:00 TS 8.08829 84.7243 main 324 302 _________PP___ -1 8.10748 84.6000 TC 42 8.06270 84.8900 2 6 272
1919363N08086 1919 52 NI BB NOT_NAMED 1919-12-29 12:00:00 TS 8.09303 84.4456 main 292 270 _________OP___ -1 8.10000 84.3000 TC 45 8.08606 84.5913 2 6 272
1919363N08086 1919 52 NI BB NOT_NAMED 1919-12-29 15:00:00 TS 8.10375 84.1463 main 259 238 _________PO___ -1 8.10749 83.9925 TC 45 8.10000 84.3000 3 6 271
1919363N08086 1919 52 NI BB NOT_NAMED 1919-12-29 18:00:00 TS 8.10074 83.8589 main 238 206 _________OP___ -1 8.10000 83.7000 TC 45 8.10148 84.0178 3 5 267
1919363N08086 1919 52 NI BB NOT_NAMED 1919-12-29 21:00:00 TS 8.07618 83.5963 main 206 182 _________PP___ -1 8.06496 83.4500 TC 45 8.08739 83.7425 3 5 262
1919363N08086 1919 52 NI BB NOT_NAMED 1919-12-30 00:00:00 TS 8.02731 83.3355 main 171 150 _________OP___ -1 8.00000 83.2000 TC 45 8.05461 83.4710 3 6 257
1919363N08086 1919 52 NI BB NOT_NAMED 1919-12-30 03:00:00 TS 7.95375 83.0500 main 150 115 _________PO___ -1 7.90751 82.9000 TC 45 8.00000 83.2000 3 6 253
1919363N08086 1919 52 NI BB NOT_NAMED 1919-12-30 06:00:00 TS 7.85873 82.7604 main 115 80 _________OP___ -1 7.80000 82.6000 TC 45 7.91746 82.9209 3 6 250
1919363N08086 1919 52 NI BB NOT_NAMED 1919-12-30 09:00:00 TS 7.75371 82.4925 main 80 45 _________PP___ -1 7.69247 82.3425 TC 45 7.81496 82.6424 3 6 248
1919363N08086 1919 52 NI BB NOT_NAMED 1919-12-30 12:00:00 TS 7.65248 82.2339 main 45 22 _________OP___ -1 7.60000 82.1000 TC 45 7.70497 82.3678 3 5 251
1919363N08086 1919 52 NI BB NOT_NAMED 1919-12-30 15:00:00 TS 7.57499 81.9750 main 22 0 _________PO___ -1 7.54999 81.8500 TC 45 7.60000 82.1000 3 5 255
1919363N08086 1919 52 NI BB NOT_NAMED 1919-12-30 18:00:00 TS 7.51294 81.7215 main 0 0 _________OP___ -1 7.50000 81.6000 TC 45 7.52587 81.8429 3 5 254
1919363N08086 1919 52 NI BB NOT_NAMED 1919-12-30 21:00:00 TS 7.43245 81.4713 main 0 0 _________PP___ -1 7.40749 81.3500 TC 45 7.45742 81.5926 3 5 251
1919363N08086 1919 52 NI BB NOT_NAMED 1919-12-31 00:00:00 TS 7.34263 81.2230 main 0 0 _________OP___ -1 7.30000 81.1000 TC 45 7.38525 81.3460 3 5 250
1919363N08086 1919 52 NI BB NOT_NAMED 1919-12-31 03:00:00 TS 7.25374 80.9750 main 0 0 _________PO___ -1 7.20749 80.8500 TC 45 7.30000 81.1000 3 5 248
1919363N08086 1919 52 NI BB NOT_NAMED 1919-12-31 06:00:00 TS 7.14061 80.7229 main 0 0 _________OP___ -1 7.10000 80.6000 TC 45 7.18123 80.8459 3 6 243
1919363N08086 1919 52 NI BB NOT_NAMED 1919-12-31 09:00:00 TS 6.99998 80.4675 main 0 0 _________PP___ -1 6.95000 80.3425 TC 45 7.04997 80.5925 3 6 241
1919363N08086 1919 52 NI BB NOT_NAMED 1919-12-31 12:00:00 TS 6.85936 80.2214 main 0 0 _________OP___ -1 6.80000 80.1000 TC 45 6.91873 80.3428 3 5 241
1919363N08086 1919 52 NI BB NOT_NAMED 1919-12-31 15:00:00 TS 6.74249 80.0000 main 0 0 _________PO___ -1 6.68497 79.9000 TC 45 6.80000 80.1000 3 4 243
1919363N08086 1919 52 NI BB NOT_NAMED 1919-12-31 18:00:00 TS 6.65912 79.8266 main 15 15 _________OP___ -1 6.60000 79.7000 TC 45 6.71824 79.9532 3 4 247
1919363N08086 1919 52 NI BB NOT_NAMED 1919-12-31 21:00:00 TS 6.60323 79.6664 main 31 31 _________PP___ -1 6.55730 79.5326 TC 45 6.64916 79.8001 3 5 255
1919363N08086 1919 52 NI BB NOT_NAMED 1920-01-01 00:00:00 TS 6.54027 79.3860 main 64 64 _________OP___ -1 6.50000 79.2000 TC 45 6.58053 79.5720 3 8 258
1919363N08086 1919 52 NI BB NOT_NAMED 1920-01-01 03:00:00 TS 6.42882 78.8624 main 119 119 _________PO___ -1 6.35764 78.5249 TC 45 6.50000 79.2000 3 13 258
1919363N08086 1919 52 NI BB NOT_NAMED 1920-01-01 06:00:00 TS 6.28676 78.1523 main 196 196 _________OP___ -1 6.20000 77.7000 TC 45 6.37352 78.6046 3 15 259
1919363N08086 1919 52 NI AS NOT_NAMED 1920-01-01 09:00:00 TS 6.16020 77.4072 main 212 212 _________PP___ -1 6.08490 76.9500 TC 45 6.23551 77.8643 3 15 261
1919363N08086 1919 52 NI AS NOT_NAMED 1920-01-01 12:00:00 TS 6.05233 76.6210 main 237 237 _________OP___ -1 6.00000 76.2000 TC 45 6.10467 77.0419 3 16 263
1919363N08086 1919 52 NI AS NOT_NAMED 1920-01-01 15:00:00 TS 5.96743 75.8288 main 287 287 _________PO___ -1 5.93487 75.4575 TC 41 6.00000 76.2000 3 15 265
1919363N08086 1919 52 NI AS NOT_NAMED 1920-01-01 18:00:00 TS 5.92038 75.0934 main 346 346 _________OP___ -1 5.90000 74.7000 TC 37 5.93567 75.3884 3 15 267
1919363N08086 1919 52 NI AS NOT_NAMED 1920-01-01 21:00:00 TS 5.90029 74.3290 main 408 408 _________PP___ -1 5.89276 73.9100 TC 33 5.90530 74.6083 3 15 269
1919363N08086 1919 52 NI AS NOT_NAMED 1920-01-02 00:00:00 TS 5.89820 73.5993 main 463 463 _________OP___ -1 5.90000 73.1000 TC 30 5.89730 73.8490 3 12 270
1919363N08086 1919 52 NI AS NOT_NAMED 1920-01-02 03:00:00 NR 5.90000 73.1000 main 503 __________O___ -1 TC 5.90000 73.1000 1 10 270

IBTrACS Databaseについて

本データベースは、米国NOAAが公開する1842年以降の世界の熱帯低気圧のベストトラックデータアーカイブInternational Best Track Archive for Climate Stewardship (IBTrACS)を、ウェブで閲覧しやすい形式に変換したものです。

最終更新日:2021-10-27